Time;durP1;ratioP1;P1;durP2;ratioP2;P2;SDS_P1;SDS_P2;PMS_P1;PMS_P2;Temp;Humidity;BMP_temperature;BMP_pressure;BME280_temperature;BME280_humidity;BME280_pressure;Samples;Min_cycle;Max_cycle;Signal;HPM_P1;HPM_P2
2023/01/31 00:01:26;;;;;;;21.10;4.05;;;3.50;99.90;;;;;;5027315;28;20049;-82
2023/01/31 00:03:53;;;;;;;18.75;3.60;;;3.50;99.90;;;;;;5086030;28;20056;-81
2023/01/31 00:06:25;;;;;;;25.25;4.03;;;3.50;99.90;;;;;;5047843;28;20076;-82
2023/01/31 00:08:51;;;;;;;20.80;3.40;;;3.40;99.90;;;;;;5052034;28;20048;-83
2023/01/31 00:11:20;;;;;;;22.35;3.97;;;3.50;99.90;;;;;;5049294;28;20133;-81
2023/01/31 00:13:46;;;;;;;21.27;3.72;;;3.50;99.90;;;;;;5033217;28;20128;-82
2023/01/31 00:16:13;;;;;;;22.10;3.58;;;3.40;99.90;;;;;;5052930;28;20124;-82
2023/01/31 00:18:39;;;;;;;23.45;3.33;;;4.40;99.90;;;;;;5051854;28;20523;-83
2023/01/31 00:21:14;;;;;;;25.25;3.50;;;3.40;99.90;;;;;;5066158;28;20041;-82
2023/01/31 00:23:40;;;;;;;27.25;3.92;;;3.40;99.90;;;;;;5047220;28;20099;-83
2023/01/31 00:26:09;;;;;;;18.75;3.22;;;3.40;99.90;;;;;;5011911;28;20098;-82
2023/01/31 00:28:34;;;;;;;21.55;3.40;;;3.40;99.90;;;;;;5064889;28;20077;-82
2023/01/31 00:31:00;;;;;;;19.35;3.13;;;3.40;99.90;;;;;;5019565;28;20436;-83
2023/01/31 00:33:26;;;;;;;20.45;3.30;;;3.40;99.90;;;;;;5052361;28;20044;-82
2023/01/31 00:35:51;;;;;;;28.65;3.60;;;3.40;99.90;;;;;;5017545;28;20477;-82
2023/01/31 00:38:17;;;;;;;20.40;3.20;;;3.40;99.90;;;;;;5074674;28;20147;-85
2023/01/31 00:40:53;;;;;;;24.85;3.47;;;3.40;99.90;;;;;;5049604;28;20051;-86
2023/01/31 00:43:19;;;;;;;23.52;3.95;;;3.40;99.90;;;;;;5015213;28;20057;-82
2023/01/31 00:45:45;;;;;;;21.67;3.70;;;3.60;99.90;;;;;;5036147;28;20056;-82
2023/01/31 00:48:11;;;;;;;23.02;3.40;;;3.30;99.90;;;;;;5079223;28;20049;-84
2023/01/31 00:50:36;;;;;;;21.67;3.65;;;3.20;99.90;;;;;;5065332;28;20053;-84
2023/01/31 00:53:02;;;;;;;18.92;3.42;;;3.20;99.90;;;;;;5079948;28;20056;-82
2023/01/31 00:55:28;;;;;;;17.00;3.17;;;3.30;99.90;;;;;;5051395;28;20516;-82
2023/01/31 00:57:54;;;;;;;24.23;3.55;;;3.20;99.90;;;;;;5051348;28;20099;-82
2023/01/31 01:00:21;;;;;;;21.45;3.50;;;3.30;99.90;;;;;;5051175;28;20087;-82
2023/01/31 01:02:46;;;;;;;18.85;3.20;;;3.20;99.90;;;;;;5035317;28;20119;-82
2023/01/31 01:05:12;;;;;;;17.17;3.25;;;3.20;99.90;;;;;;5033429;28;20135;-82
2023/01/31 01:07:38;;;;;;;23.25;3.30;;;3.20;99.90;;;;;;5042271;28;20489;-82
2023/01/31 01:10:05;;;;;;;22.38;3.03;;;3.20;99.90;;;;;;5066829;28;20087;-82
2023/01/31 01:12:31;;;;;;;22.58;3.38;;;3.20;99.90;;;;;;5034533;28;20084;-82
2023/01/31 01:14:57;;;;;;;18.75;3.38;;;4.20;99.90;;;;;;5085073;28;20103;-82
2023/01/31 01:17:23;;;;;;;18.42;3.28;;;3.10;99.90;;;;;;5035018;28;20052;-82
2023/01/31 01:19:48;;;;;;;24.95;3.53;;;3.90;99.90;;;;;;5050427;28;20045;-81
2023/01/31 01:22:15;;;;;;;23.63;3.15;;;3.20;99.90;;;;;;5048365;28;20547;-81
2023/01/31 01:24:44;;;;;;;18.13;3.60;;;3.20;99.90;;;;;;5018283;28;20092;-81
2023/01/31 01:27:11;;;;;;;22.08;3.33;;;3.00;99.90;;;;;;5039969;28;20148;-81
2023/01/31 01:29:37;;;;;;;21.15;3.30;;;3.00;99.90;;;;;;5043555;28;20046;-81
2023/01/31 01:32:03;;;;;;;23.85;3.55;;;3.20;99.90;;;;;;5045158;28;20135;-81
2023/01/31 01:34:30;;;;;;;20.42;3.17;;;2.90;99.90;;;;;;5079428;28;20516;-82
2023/01/31 01:36:56;;;;;;;20.15;3.45;;;2.90;99.90;;;;;;5023404;28;20073;-81
2023/01/31 01:39:22;;;;;;;17.95;3.00;;;3.00;99.90;;;;;;5033870;28;20079;-81
2023/01/31 01:41:49;;;;;;;18.83;3.30;;;2.80;99.90;;;;;;5051749;28;20473;-82
2023/01/31 01:44:46;;;;;;;16.98;2.75;;;2.70;99.90;;;;;;5032169;28;20060;-81
2023/01/31 01:47:37;;;;;;;20.85;3.00;;;2.70;99.90;;;;;;5051668;28;20465;-81
2023/01/31 01:50:15;;;;;;;19.42;3.30;;;2.70;99.90;;;;;;5064807;28;20053;-82
2023/01/31 01:52:52;;;;;;;22.23;2.92;;;2.60;99.90;;;;;;5031626;28;20061;-81
2023/01/31 01:55:29;;;;;;;21.23;3.30;;;2.60;99.90;;;;;;5064369;28;20497;-81
2023/01/31 01:58:00;;;;;;;21.70;3.47;;;2.60;99.90;;;;;;5044691;28;20041;-81
2023/01/31 02:00:29;;;;;;;18.00;3.00;;;2.60;99.90;;;;;;5064990;28;20053;-81
2023/01/31 02:03:00;;;;;;;19.05;3.13;;;2.50;99.90;;;;;;5032771;28;20053;-82
2023/01/31 02:05:54;;;;;;;21.00;3.30;;;2.60;99.90;;;;;;5068010;28;20041;-81
2023/01/31 02:08:22;;;;;;;23.38;3.25;;;2.50;99.90;;;;;;5061013;28;20085;-81
2023/01/31 02:10:54;;;;;;;21.70;3.58;;;2.60;99.90;;;;;;5068428;28;20515;-81
2023/01/31 02:13:20;;;;;;;18.15;3.03;;;2.50;99.90;;;;;;5032240;28;20435;-81
2023/01/31 02:15:47;;;;;;;17.35;2.70;;;2.50;99.90;;;;;;5054660;28;20041;-81
2023/01/31 02:18:14;;;;;;;19.92;3.35;;;2.70;99.90;;;;;;5043199;28;20045;-81
2023/01/31 02:21:01;;;;;;;22.13;3.40;;;2.50;99.90;;;;;;5082220;28;20125;-82
2023/01/31 02:23:58;;;;;;;17.48;2.95;;;2.40;99.90;;;;;;5045457;28;20103;-81
2023/01/31 02:27:11;;;;;;;18.90;3.05;;;2.40;99.90;;;;;;5068136;28;20049;-81
2023/01/31 02:30:17;;;;;;;23.27;3.72;;;2.40;99.90;;;;;;5043582;28;20521;-81
2023/01/31 02:33:06;;;;;;;16.92;2.75;;;2.40;99.90;;;;;;5016972;28;20069;-81
2023/01/31 02:35:40;;;;;;;21.52;3.20;;;2.40;99.90;;;;;;5034393;28;20045;-81
2023/01/31 02:38:08;;;;;;;18.08;3.00;;;2.40;99.90;;;;;;5043362;28;20041;-81
2023/01/31 02:41:10;;;;;;;18.77;2.92;;;2.50;99.90;;;;;;5052008;28;20156;-81
2023/01/31 02:46:58;;;;;;;15.85;2.53;;;2.40;99.90;;;;;;5054446;28;20057;-81
2023/01/31 02:49:38;;;;;;;21.02;3.10;;;2.30;99.90;;;;;;5081705;28;20092;-81
2023/01/31 02:52:27;;;;;;;20.38;2.80;;;2.30;99.90;;;;;;5054441;28;20052;-81
2023/01/31 02:58:06;;;;;;;17.05;2.45;;;2.40;99.90;;;;;;5053249;28;20049;-81
2023/01/31 03:00:33;;;;;;;17.50;2.85;;;2.40;99.90;;;;;;5044334;28;20056;-81
2023/01/31 03:02:59;;;;;;;17.42;3.00;;;3.40;99.90;;;;;;5069042;28;20049;-81
2023/01/31 03:05:25;;;;;;;20.23;2.92;;;2.50;99.90;;;;;;5053504;28;20481;-81
2023/01/31 03:07:58;;;;;;;18.27;2.80;;;2.50;99.90;;;;;;5039388;28;20054;-81
2023/01/31 03:10:34;;;;;;;18.77;3.17;;;2.50;99.90;;;;;;5053425;28;20048;-81
2023/01/31 03:13:28;;;;;;;18.08;2.80;;;2.70;99.90;;;;;;5039218;28;20057;-82
2023/01/31 03:18:59;;;;;;;;;;;2.60;99.90;;;;;;5070072;28;20111;-81
2023/01/31 03:21:32;;;;;;;18.40;2.75;;;2.60;99.90;;;;;;5077368;28;19920;-82
2023/01/31 03:23:58;;;;;;;19.15;3.00;;;2.60;99.90;;;;;;5076674;28;20081;-81
2023/01/31 03:26:26;;;;;;;17.05;3.00;;;2.60;99.90;;;;;;5047329;28;20061;-80
2023/01/31 03:28:56;;;;;;;16.75;3.08;;;2.80;99.90;;;;;;5070673;28;20045;-80
2023/01/31 03:31:53;;;;;;;16.02;2.75;;;2.70;99.90;;;;;;5042996;28;20053;-81
2023/01/31 03:34:19;;;;;;;18.55;3.28;;;2.70;99.90;;;;;;5024953;28;20061;-80
2023/01/31 03:37:01;;;;;;;17.42;3.20;;;2.70;99.90;;;;;;5080688;28;20048;-80
2023/01/31 03:39:53;;;;;;;20.77;3.40;;;2.70;99.90;;;;;;5057040;28;20123;-81
2023/01/31 03:42:22;;;;;;;20.77;3.10;;;2.70;99.90;;;;;;5036993;28;20061;-79
2023/01/31 03:45:11;;;;;;;21.60;3.70;;;2.80;99.90;;;;;;5052777;28;20057;-80
2023/01/31 03:47:40;;;;;;;16.13;2.83;;;2.80;99.90;;;;;;5066745;28;20057;-81
2023/01/31 03:50:23;;;;;;;20.08;3.33;;;2.90;99.90;;;;;;5029966;28;20060;-79
2023/01/31 03:53:08;;;;;;;21.52;3.40;;;2.90;99.90;;;;;;5061363;28;20049;-80
2023/01/31 03:55:41;;;;;;;14.88;2.92;;;2.90;99.90;;;;;;5032470;28;20045;-84
2023/01/31 03:58:09;;;;;;;16.80;3.20;;;2.90;99.90;;;;;;5065689;28;20051;-81
2023/01/31 04:00:38;;;;;;;20.40;3.17;;;3.00;99.90;;;;;;5051056;28;20041;-82
2023/01/31 04:03:09;;;;;;;17.58;3.30;;;3.30;99.90;;;;;;5069402;28;20052;-83
2023/01/31 04:05:35;;;;;;;21.90;3.13;;;3.20;99.90;;;;;;5086092;28;20049;-82
2023/01/31 04:08:01;;;;;;;23.02;3.30;;;3.40;99.90;;;;;;5052740;28;20048;-82
2023/01/31 04:10:26;;;;;;;25.90;3.38;;;3.30;99.90;;;;;;5022239;28;20132;-82
2023/01/31 04:12:53;;;;;;;17.67;2.95;;;3.10;99.90;;;;;;5065598;28;20049;-82
2023/01/31 04:15:19;;;;;;;18.90;3.60;;;3.20;99.90;;;;;;5032952;28;20057;-81
2023/01/31 04:17:45;;;;;;;21.20;2.92;;;4.10;99.90;;;;;;5019281;28;20045;-82
2023/01/31 04:20:12;;;;;;;17.23;2.72;;;3.30;99.90;;;;;;5052719;28;20063;-83
2023/01/31 04:22:37;;;;;;;16.55;3.30;;;3.30;99.90;;;;;;5085199;28;20084;-81
2023/01/31 04:25:04;;;;;;;19.95;3.38;;;3.40;99.90;;;;;;5071778;28;20511;-82
2023/01/31 04:27:30;;;;;;;15.85;3.00;;;3.40;99.90;;;;;;5031752;28;20046;-81
2023/01/31 04:29:56;;;;;;;21.30;3.38;;;3.80;99.90;;;;;;5044377;28;20056;-83
2023/01/31 04:32:21;;;;;;;21.20;3.30;;;3.50;99.90;;;;;;5068239;28;20048;-81
2023/01/31 04:34:47;;;;;;;21.02;3.22;;;3.60;99.90;;;;;;5026346;28;20470;-85
2023/01/31 04:37:13;;;;;;;29.50;3.70;;;3.60;99.90;;;;;;5028095;28;20046;-84
2023/01/31 04:39:38;;;;;;;16.60;3.38;;;3.60;99.90;;;;;;5064859;28;20045;-82
2023/01/31 04:42:04;;;;;;;18.35;3.00;;;3.70;99.90;;;;;;5032424;28;20056;-84
2023/01/31 04:44:30;;;;;;;18.27;3.22;;;3.70;99.90;;;;;;5004422;28;20111;-82
2023/01/31 04:46:55;;;;;;;18.45;3.50;;;3.80;99.90;;;;;;4991582;28;20045;-82
2023/01/31 04:49:21;;;;;;;18.73;3.30;;;3.80;99.90;;;;;;5031699;28;20477;-82
2023/01/31 04:51:47;;;;;;;19.05;3.35;;;3.80;99.90;;;;;;5065610;28;20057;-82
2023/01/31 04:54:12;;;;;;;22.70;4.18;;;3.90;99.90;;;;;;5044800;28;20056;-82
2023/01/31 04:56:38;;;;;;;19.48;3.58;;;4.40;99.90;;;;;;5032327;28;20053;-81
2023/01/31 04:59:04;;;;;;;18.25;3.25;;;4.00;99.90;;;;;;5064901;28;20060;-81
2023/01/31 05:01:30;;;;;;;18.95;3.50;;;3.90;99.90;;;;;;5084426;28;20102;-84
2023/01/31 05:03:55;;;;;;;23.83;3.70;;;3.90;99.90;;;;;;5051935;28;20045;-82
2023/01/31 05:06:21;;;;;;;19.65;3.65;;;3.90;99.90;;;;;;5033872;28;20055;-81
2023/01/31 05:08:47;;;;;;;20.90;4.00;;;3.90;99.90;;;;;;5040842;28;20131;-81
2023/01/31 05:11:13;;;;;;;22.58;3.92;;;3.90;99.90;;;;;;5084979;28;20382;-81
2023/01/31 05:13:38;;;;;;;21.58;3.80;;;3.90;99.90;;;;;;5043908;28;20046;-81
2023/01/31 05:16:09;;;;;;;24.52;4.22;;;3.90;99.90;;;;;;5032154;28;20042;-82
2023/01/31 05:18:36;;;;;;;21.15;4.00;;;3.90;99.90;;;;;;5031384;28;20083;-82
2023/01/31 05:21:03;;;;;;;23.95;3.88;;;3.90;99.90;;;;;;5065337;28;20049;-81
2023/01/31 05:23:29;;;;;;;24.27;4.05;;;3.90;99.90;;;;;;5065166;28;20111;-81
2023/01/31 05:25:56;;;;;;;17.38;3.80;;;4.00;99.90;;;;;;5045549;28;20056;-81
2023/01/31 05:28:22;;;;;;;16.48;3.38;;;4.00;99.90;;;;;;5051363;28;20045;-81
2023/01/31 05:30:48;;;;;;;23.98;4.18;;;4.00;99.90;;;;;;5050712;28;20045;-81
2023/01/31 05:33:14;;;;;;;22.25;4.50;;;4.00;99.90;;;;;;5015355;28;20060;-81
2023/01/31 05:35:41;;;;;;;20.70;4.25;;;4.00;99.90;;;;;;5064928;28;20060;-81
2023/01/31 05:38:08;;;;;;;21.35;4.10;;;4.10;99.90;;;;;;5037021;28;20571;-81
2023/01/31 05:40:34;;;;;;;26.92;4.80;;;4.20;99.90;;;;;;5054591;28;20045;-84
2023/01/31 05:43:00;;;;;;;23.30;5.28;;;4.30;99.90;;;;;;5051314;28;20053;-81
2023/01/31 05:45:27;;;;;;;24.60;4.97;;;4.30;99.90;;;;;;5067973;28;20497;-80
2023/01/31 05:47:53;;;;;;;26.88;5.55;;;4.80;99.90;;;;;;5049584;28;20045;-83
2023/01/31 05:50:19;;;;;;;25.45;5.25;;;4.50;99.90;;;;;;5068654;28;20045;-81
2023/01/31 05:52:53;;;;;;;24.38;5.32;;;5.50;99.90;;;;;;5038726;28;20085;-80
2023/01/31 05:55:19;;;;;;;23.35;5.50;;;4.70;99.90;;;;;;5019016;28;20537;-82
2023/01/31 05:57:45;;;;;;;22.77;5.38;;;4.70;99.90;;;;;;5036222;28;20588;-81
2023/01/31 06:00:13;;;;;;;20.92;5.03;;;4.80;99.90;;;;;;5067803;28;20060;-81
2023/01/31 06:02:40;;;;;;;36.42;6.47;;;4.80;99.90;;;;;;5034640;28;20115;-81
2023/01/31 06:05:07;;;;;;;27.45;5.75;;;4.90;99.90;;;;;;5040697;28;20080;-81
2023/01/31 06:07:33;;;;;;;25.90;5.75;;;5.00;99.90;;;;;;5067635;28;20053;-80
2023/01/31 06:09:58;;;;;;;24.98;5.82;;;5.00;99.90;;;;;;5054949;28;20424;-80
2023/01/31 06:12:24;;;;;;;29.80;6.10;;;5.10;99.90;;;;;;5042509;28;20050;-81
2023/01/31 06:14:50;;;;;;;28.00;6.15;;;5.00;99.90;;;;;;5071158;28;20037;-84
2023/01/31 06:17:16;;;;;;;27.35;6.38;;;5.10;99.90;;;;;;5045394;28;20081;-85
2023/01/31 06:19:42;;;;;;;29.75;7.15;;;5.10;99.90;;;;;;5066324;28;20060;-82
2023/01/31 06:22:09;;;;;;;31.50;7.20;;;5.20;99.90;;;;;;5044591;28;20052;-83
2023/01/31 06:24:34;;;;;;;33.83;7.03;;;5.20;99.90;;;;;;5047177;28;20064;-83
2023/01/31 06:27:00;;;;;;;27.17;5.82;;;5.20;99.90;;;;;;5049548;28;20088;-84
2023/01/31 06:29:26;;;;;;;27.33;6.30;;;5.20;99.90;;;;;;5035244;28;20183;-87
2023/01/31 06:31:52;;;;;;;26.48;7.15;;;5.30;99.90;;;;;;5032922;28;20493;-80
2023/01/31 06:34:19;;;;;;;32.67;7.45;;;5.20;99.90;;;;;;5043531;28;20064;-83
2023/01/31 06:36:44;;;;;;;33.72;8.18;;;5.20;99.90;;;;;;5052557;28;20057;-83
2023/01/31 06:39:12;;;;;;;36.08;8.75;;;5.20;99.90;;;;;;5049638;28;20063;-84
2023/01/31 06:41:38;;;;;;;30.15;8.27;;;5.30;99.90;;;;;;5051781;28;20048;-82
2023/01/31 06:44:04;;;;;;;27.20;7.57;;;5.30;99.90;;;;;;5033849;28;20055;-79
2023/01/31 06:46:30;;;;;;;27.67;8.63;;;5.30;99.90;;;;;;5033281;28;20045;-81
2023/01/31 06:48:55;;;;;;;32.70;9.50;;;5.40;99.90;;;;;;5043082;28;20041;-81
2023/01/31 06:51:21;;;;;;;31.13;9.05;;;5.40;99.90;;;;;;5064797;28;20044;-81
2023/01/31 06:53:47;;;;;;;31.98;9.27;;;5.40;99.90;;;;;;5076843;28;20416;-80
2023/01/31 06:56:13;;;;;;;30.63;9.07;;;5.50;99.90;;;;;;5049224;28;20128;-80
2023/01/31 06:58:39;;;;;;;25.60;9.27;;;5.50;99.90;;;;;;5049148;28;20052;-82
2023/01/31 07:01:07;;;;;;;30.08;9.30;;;5.50;99.90;;;;;;5053048;28;20044;-81
2023/01/31 07:03:33;;;;;;;35.30;10.48;;;5.50;99.90;;;;;;5046081;28;20536;-82
2023/01/31 07:05:58;;;;;;;30.88;9.55;;;5.60;99.90;;;;;;5050261;28;20059;-80
2023/01/31 07:08:24;;;;;;;32.38;9.52;;;5.60;99.90;;;;;;5079755;28;20052;-80
2023/01/31 07:10:50;;;;;;;29.30;9.45;;;5.60;99.90;;;;;;5049728;28;20052;-81
2023/01/31 07:13:15;;;;;;;31.88;9.32;;;5.60;99.90;;;;;;5048246;28;20045;-80
2023/01/31 07:15:41;;;;;;;26.90;9.45;;;5.60;99.90;;;;;;5050830;28;20071;-81
2023/01/31 07:18:07;;;;;;;23.92;7.57;;;5.60;99.90;;;;;;5076925;28;20045;-81
2023/01/31 07:20:33;;;;;;;29.90;8.45;;;5.70;99.90;;;;;;5051796;28;20045;-82
2023/01/31 07:22:59;;;;;;;29.00;8.73;;;5.60;99.90;;;;;;5032992;28;20045;-83
2023/01/31 07:25:26;;;;;;;29.13;8.98;;;5.60;99.90;;;;;;5050857;28;20056;-78
2023/01/31 07:27:52;;;;;;;31.70;9.35;;;5.60;99.90;;;;;;5051196;28;20516;-84
2023/01/31 07:30:18;;;;;;;29.92;8.45;;;5.60;99.90;;;;;;5034055;28;20128;-82
2023/01/31 07:32:44;;;;;;;29.15;8.63;;;5.60;99.90;;;;;;5047291;28;20052;-83
2023/01/31 07:35:10;;;;;;;29.70;8.25;;;5.70;99.90;;;;;;5049798;28;20102;-80
2023/01/31 07:37:36;;;;;;;30.95;8.00;;;5.70;99.90;;;;;;5048486;28;20040;-83
2023/01/31 07:40:04;;;;;;;33.33;7.80;;;5.70;99.90;;;;;;5077697;28;20057;-83
2023/01/31 07:42:30;;;;;;;25.08;7.22;;;5.70;99.90;;;;;;5017495;28;20061;-82
2023/01/31 07:44:56;;;;;;;28.25;7.80;;;5.70;99.90;;;;;;5076186;28;20049;-81
2023/01/31 07:47:21;;;;;;;31.48;7.90;;;5.70;99.90;;;;;;5029903;28;20060;-80
2023/01/31 07:49:49;;;;;;;26.10;7.28;;;5.60;99.90;;;;;;5050049;28;20049;-82
2023/01/31 07:52:15;;;;;;;25.73;6.53;;;5.60;99.90;;;;;;5032131;28;20057;-81
2023/01/31 07:54:40;;;;;;;24.65;6.85;;;5.70;99.90;;;;;;5030831;28;20052;-80
2023/01/31 07:57:06;;;;;;;19.60;5.47;;;5.80;99.90;;;;;;5030996;28;20421;-81
2023/01/31 07:59:32;;;;;;;30.08;6.82;;;5.80;99.90;;;;;;5046008;28;20083;-82
2023/01/31 08:04:58;;;;;;;24.77;6.93;;;5.80;99.90;;;;;;5032314;28;20482;-81
2023/01/31 08:07:25;;;;;;;22.63;5.95;;;5.90;99.90;;;;;;5037125;28;20075;-81
2023/01/31 08:09:51;;;;;;;19.63;5.70;;;6.40;99.90;;;;;;5045689;28;20132;-81
2023/01/31 08:12:17;;;;;;;22.60;6.15;;;5.90;99.90;;;;;;5031609;28;20132;-80
2023/01/31 08:14:43;;;;;;;27.70;6.85;;;6.00;99.90;;;;;;5065106;28;20061;-81
2023/01/31 08:17:09;;;;;;;21.42;6.00;;;5.90;99.90;;;;;;5048504;28;20360;-83
2023/01/31 08:19:37;;;;;;;21.27;5.57;;;5.90;99.90;;;;;;5048292;28;20394;-83
2023/01/31 08:22:04;;;;;;;23.60;6.22;;;5.90;99.90;;;;;;5077263;28;21083;-84
2023/01/31 08:24:30;;;;;;;24.83;6.30;;;5.90;99.90;;;;;;5060707;28;20119;-83
2023/01/31 08:26:57;;;;;;;21.60;6.07;;;5.90;99.90;;;;;;5044652;28;20053;-80
2023/01/31 08:29:23;;;;;;;27.73;6.35;;;5.90;99.90;;;;;;5045258;28;20457;-80
2023/01/31 08:31:50;;;;;;;24.30;6.68;;;5.90;99.90;;;;;;5048466;28;20079;-80
2023/01/31 08:34:16;;;;;;;19.10;5.93;;;5.90;99.90;;;;;;5047744;28;20074;-82
2023/01/31 08:36:42;;;;;;;26.65;6.95;;;5.90;99.90;;;;;;5056017;28;20461;-83
2023/01/31 08:39:09;;;;;;;25.75;6.70;;;6.00;99.90;;;;;;5043963;28;20473;-84
2023/01/31 08:41:36;;;;;;;23.17;6.50;;;6.00;99.90;;;;;;5041957;28;20076;-81
2023/01/31 08:44:03;;;;;;;30.27;7.20;;;6.00;99.90;;;;;;5045887;28;20058;-78
2023/01/31 08:46:35;;;;;;;27.33;6.63;;;6.00;99.90;;;;;;5033242;28;20128;-81
2023/01/31 08:49:03;;;;;;;27.02;6.90;;;6.00;99.90;;;;;;5068562;28;20128;-83
2023/01/31 08:51:29;;;;;;;23.95;6.60;;;5.90;99.90;;;;;;5043189;28;20052;-81
2023/01/31 08:53:55;;;;;;;24.30;6.32;;;6.00;99.90;;;;;;5066854;28;20468;-81
2023/01/31 08:56:24;;;;;;;23.50;5.68;;;5.90;99.90;;;;;;5046315;28;20041;-85
2023/01/31 08:58:51;;;;;;;21.58;6.07;;;6.00;99.90;;;;;;5035990;28;20037;-80
2023/01/31 09:01:18;;;;;;;19.00;5.45;;;6.00;99.90;;;;;;5046953;28;20049;-79
2023/01/31 09:03:45;;;;;;;23.90;5.35;;;5.90;99.90;;;;;;5048056;28;20064;-82
2023/01/31 09:06:17;;;;;;;19.88;5.65;;;6.00;99.90;;;;;;5046764;28;20053;-82
2023/01/31 09:08:43;;;;;;;21.95;6.45;;;6.00;99.90;;;;;;5045076;28;20057;-82
2023/01/31 09:11:09;;;;;;;22.60;6.10;;;6.10;99.90;;;;;;5045605;28;20080;-80
2023/01/31 09:13:35;;;;;;;24.48;6.15;;;6.10;99.90;;;;;;5043261;28;20520;-79
2023/01/31 09:16:10;;;;;;;23.95;6.05;;;6.10;99.90;;;;;;5047234;28;20057;-80
2023/01/31 09:18:38;;;;;;;20.77;5.15;;;6.10;99.90;;;;;;5043988;28;20041;-80
2023/01/31 09:21:18;;;;;;;20.92;5.50;;;6.20;99.90;;;;;;5046113;28;20400;-81
2023/01/31 09:23:45;;;;;;;17.98;5.00;;;6.20;99.90;;;;;;5040352;28;20084;-83
2023/01/31 09:26:12;;;;;;;18.42;4.80;;;6.30;99.90;;;;;;5044709;28;20052;-82
2023/01/31 09:28:41;;;;;;;20.23;3.95;;;6.30;99.90;;;;;;5045562;28;20056;-82
2023/01/31 09:31:10;;;;;;;19.77;4.40;;;6.30;99.90;;;;;;5047254;28;20389;-85
2023/01/31 09:33:36;;;;;;;18.63;4.05;;;6.30;99.90;;;;;;5030051;28;20049;-82
2023/01/31 09:36:23;;;;;;;17.55;4.05;;;6.40;99.90;;;;;;5045803;28;20045;-83
2023/01/31 09:38:54;;;;;;;17.65;4.43;;;6.40;99.90;;;;;;5060401;28;20075;-84
2023/01/31 09:41:35;;;;;;;16.15;4.38;;;6.40;99.90;;;;;;5035216;28;20045;-85
2023/01/31 09:44:20;;;;;;;16.05;4.65;;;6.40;99.90;;;;;;5040615;28;20057;-85
2023/01/31 09:46:55;;;;;;;25.42;4.68;;;6.40;99.90;;;;;;5061667;28;20090;-81
2023/01/31 09:49:38;;;;;;;19.83;3.42;;;6.40;99.90;;;;;;5070249;28;20176;-84
2023/01/31 09:52:04;;;;;;;15.13;4.05;;;6.50;99.90;;;;;;5040347;28;20570;-82
2023/01/31 09:54:37;;;;;;;16.48;3.88;;;6.60;99.90;;;;;;5069739;28;20076;-84
2023/01/31 09:57:25;;;;;;;19.15;4.32;;;6.60;99.90;;;;;;5068732;28;20056;-83
2023/01/31 10:00:28;;;;;;;18.70;3.80;;;6.70;99.90;;;;;;5046164;28;20048;-80
2023/01/31 10:03:32;;;;;;;17.73;4.10;;;6.70;99.90;;;;;;5047508;28;20366;-82
2023/01/31 10:06:16;;;;;;;18.85;3.38;;;6.80;99.90;;;;;;5048277;28;20466;-84
2023/01/31 10:08:53;;;;;;;13.43;3.70;;;6.80;99.90;;;;;;5047812;28;20049;-84
2023/01/31 10:11:40;;;;;;;15.63;4.20;;;6.90;99.90;;;;;;5047313;28;20110;-83
2023/01/31 10:14:20;;;;;;;19.05;4.10;;;6.90;99.90;;;;;;5046008;28;20480;-81
2023/01/31 10:17:10;;;;;;;14.90;3.53;;;6.90;99.90;;;;;;5080201;28;20048;-84
2023/01/31 10:19:56;;;;;;;20.55;4.57;;;6.90;99.90;;;;;;5039805;28;20514;-83
2023/01/31 10:22:41;;;;;;;20.58;4.05;;;6.90;99.90;;;;;;5044576;28;20075;-83
2023/01/31 10:25:18;;;;;;;19.65;4.70;;;7.00;99.90;;;;;;5043922;28;20041;-82
2023/01/31 10:27:50;;;;;;;16.70;3.70;;;7.00;99.90;;;;;;5046264;28;20052;-80
2023/01/31 10:30:19;;;;;;;;;;;7.10;99.90;;;;;;5042107;28;20044;-82
2023/01/31 10:32:47;;;;;;;16.80;4.40;;;7.10;99.90;;;;;;5034571;28;20011;-81
2023/01/31 10:35:29;;;;;;;14.60;3.90;;;7.10;99.90;;;;;;5050083;28;20144;-81
2023/01/31 10:38:00;;;;;;;20.27;3.70;;;7.00;99.90;;;;;;5061218;28;20449;-80
2023/01/31 10:40:38;;;;;;;16.33;3.90;;;7.00;99.90;;;;;;5051344;28;20057;-81
2023/01/31 10:43:41;;;;;;;20.35;4.22;;;7.00;99.90;;;;;;5031662;28;20049;-81
2023/01/31 10:46:12;;;;;;;17.30;4.05;;;7.00;99.90;;;;;;5036248;28;20057;-80
2023/01/31 10:48:39;;;;;;;20.38;4.40;;;7.00;99.90;;;;;;5048020;28;20076;-81
2023/01/31 10:51:17;;;;;;;17.42;4.32;;;7.00;99.90;;;;;;5077984;28;20397;-85
2023/01/31 10:54:02;;;;;;;17.35;4.28;;;7.10;99.90;;;;;;5048620;28;20061;-81
2023/01/31 10:56:39;;;;;;;18.70;4.85;;;7.10;99.90;;;;;;5049597;28;20048;-83
2023/01/31 10:59:11;;;;;;;17.15;4.70;;;7.10;99.90;;;;;;5028137;28;20088;-84
2023/01/31 11:01:37;;;;;;;23.77;5.30;;;7.00;99.90;;;;;;5049337;28;20127;-81
2023/01/31 11:04:33;;;;;;;18.02;4.75;;;7.00;99.90;;;;;;5043584;28;20140;-83
2023/01/31 11:07:00;;;;;;;18.13;4.97;;;7.00;99.90;;;;;;5046986;28;20125;-83
2023/01/31 11:09:52;;;;;;;20.30;5.35;;;7.00;99.90;;;;;;5048086;28;20512;-84
2023/01/31 11:12:18;;;;;;;22.77;5.90;;;7.00;99.90;;;;;;5051094;28;20111;-84
2023/01/31 11:14:43;;;;;;;21.25;5.68;;;7.00;99.90;;;;;;5049114;28;20037;-87
2023/01/31 11:17:20;;;;;;;19.05;5.55;;;7.00;99.90;;;;;;5033679;28;20033;-84
2023/01/31 11:19:50;;;;;;;19.55;5.43;;;6.90;99.90;;;;;;5049316;28;20128;-84
2023/01/31 11:22:29;;;;;;;22.15;5.65;;;6.90;99.90;;;;;;5048901;28;20124;-81
2023/01/31 11:24:57;;;;;;;16.77;4.78;;;6.90;99.90;;;;;;5049033;28;20056;-82
2023/01/31 11:27:27;;;;;;;15.43;4.95;;;6.90;99.90;;;;;;5050824;28;20132;-82
2023/01/31 11:29:57;;;;;;;16.63;5.40;;;7.00;99.90;;;;;;5048343;28;20111;-88
2023/01/31 11:32:27;;;;;;;15.23;4.60;;;7.00;99.90;;;;;;5048238;28;20044;-83
2023/01/31 11:35:20;;;;;;;20.67;4.90;;;7.00;99.90;;;;;;5048435;28;20053;-82
2023/01/31 11:38:02;;;;;;;20.33;4.90;;;7.10;99.90;;;;;;5047102;28;20081;-79
2023/01/31 11:40:30;;;;;;;21.58;5.25;;;7.00;99.90;;;;;;5048432;28;20083;-83
2023/01/31 11:43:00;;;;;;;18.65;4.97;;;7.00;99.90;;;;;;5046317;28;20060;-82
2023/01/31 11:45:43;;;;;;;20.98;5.50;;;7.10;99.90;;;;;;5047557;28;20052;-83
2023/01/31 11:48:25;;;;;;;20.85;4.68;;;7.10;99.90;;;;;;5049105;28;20389;-83
2023/01/31 11:50:53;;;;;;;;;;;7.10;99.90;;;;;;5030974;28;20041;-81
2023/01/31 11:53:30;;;;;;;20.23;5.00;;;7.10;99.90;;;;;;5048943;28;19975;-84
2023/01/31 11:56:08;;;;;;;23.83;5.93;;;7.10;99.90;;;;;;5081721;28;20045;-83
2023/01/31 11:58:38;;;;;;;18.08;4.90;;;7.10;99.90;;;;;;5047444;28;20049;-81
2023/01/31 12:01:15;;;;;;;21.27;5.40;;;7.10;99.90;;;;;;5045942;28;20047;-82
2023/01/31 12:04:05;;;;;;;21.38;5.07;;;7.10;99.90;;;;;;5045920;28;20120;-81
2023/01/31 12:06:39;;;;;;;18.52;4.80;;;7.10;99.90;;;;;;5044753;28;20329;-79
2023/01/31 12:09:19;;;;;;;23.30;4.90;;;7.10;99.90;;;;;;5061119;28;20056;-77
2023/01/31 12:12:23;;;;;;;20.65;4.72;;;7.20;99.90;;;;;;5077649;28;20136;-81
2023/01/31 12:14:49;;;;;;;23.52;5.03;;;7.20;99.90;;;;;;5044559;28;20059;-86
2023/01/31 12:17:17;;;;;;;22.58;4.70;;;7.20;99.90;;;;;;5066897;28;20041;-80
2023/01/31 12:19:50;;;;;;;21.67;4.47;;;7.20;99.90;;;;;;5047678;28;20057;-84
2023/01/31 12:22:31;;;;;;;22.58;4.72;;;7.20;99.90;;;;;;5067337;28;20106;-86
2023/01/31 12:25:15;;;;;;;23.08;4.72;;;7.30;99.90;;;;;;5048194;28;20481;-86
2023/01/31 12:28:12;;;;;;;20.15;4.55;;;7.30;99.90;;;;;;5047703;28;20779;-84
2023/01/31 12:30:49;;;;;;;25.58;4.60;;;7.40;99.90;;;;;;5049158;28;20071;-86
2023/01/31 12:33:44;;;;;;;22.23;4.90;;;7.40;99.90;;;;;;5075664;28;20045;-83
2023/01/31 12:36:29;;;;;;;20.88;4.50;;;7.40;99.90;;;;;;5067896;28;20505;-85
2023/01/31 12:39:00;;;;;;;14.15;3.33;;;7.50;99.90;;;;;;5047929;28;20106;-85
2023/01/31 12:41:29;;;;;;;24.27;4.57;;;7.50;99.90;;;;;;5049931;28;20139;-83
2023/01/31 12:44:35;;;;;;;20.20;3.88;;;7.50;99.90;;;;;;5049724;28;20080;-87
2023/01/31 12:47:28;;;;;;;19.90;4.03;;;7.60;99.90;;;;;;5065941;28;20044;-82
2023/01/31 12:50:22;;;;;;;20.50;4.10;;;7.60;99.90;;;;;;5059893;28;20057;-86
2023/01/31 12:53:27;;;;;;;22.38;3.97;;;7.60;99.90;;;;;;5025486;28;20053;-83
2023/01/31 12:55:53;;;;;;;18.92;4.18;;;7.70;99.90;;;;;;5075447;28;20056;-84
2023/01/31 12:58:38;;;;;;;20.52;3.63;;;7.70;99.90;;;;;;5072338;28;20049;-87
2023/01/31 13:01:12;;;;;;;19.90;3.90;;;7.70;99.90;;;;;;5040862;28;20110;-87
2023/01/31 13:03:54;;;;;;;21.30;4.05;;;7.70;99.90;;;;;;5077950;28;20049;-83
2023/01/31 13:06:44;;;;;;;19.30;3.78;;;7.70;99.90;;;;;;5048877;28;20445;-83
2023/01/31 13:09:32;;;;;;;25.92;4.45;;;7.80;99.90;;;;;;5073759;28;20367;-86
2023/01/31 13:12:23;;;;;;;19.55;4.32;;;7.80;99.90;;;;;;5079876;28;20052;-86
2023/01/31 13:15:12;;;;;;;17.13;3.83;;;7.80;99.90;;;;;;5045083;28;20045;-85
2023/01/31 13:17:40;;;;;;;18.20;4.07;;;7.80;99.90;;;;;;5065114;28;20494;-86
2023/01/31 13:20:24;;;;;;;17.35;3.75;;;7.90;99.90;;;;;;5048775;28;20493;-86
2023/01/31 13:22:59;;;;;;;17.90;3.55;;;7.90;99.90;;;;;;5029823;28;20052;-85
2023/01/31 13:25:28;;;;;;;20.70;3.83;;;7.90;99.90;;;;;;5064255;28;20041;-84